createdAt,value
2019-03-12T00:02:25.393Z,99.90
2019-03-12T00:04:55.289Z,99.90
2019-03-12T00:07:25.165Z,99.90
2019-03-12T00:09:55.454Z,99.90
2019-03-12T00:12:25.406Z,99.90
2019-03-12T00:14:55.352Z,99.90
2019-03-12T00:17:25.651Z,99.90
2019-03-12T00:19:56.075Z,99.90
2019-03-12T00:22:26.053Z,99.90
2019-03-12T00:24:57.222Z,99.90
2019-03-12T00:27:27.231Z,99.90
2019-03-12T00:29:57.124Z,99.90
2019-03-12T00:32:27.724Z,99.90
2019-03-12T00:34:57.677Z,99.90
2019-03-12T00:37:27.511Z,99.90
2019-03-12T00:39:57.451Z,99.90
2019-03-12T00:42:27.495Z,99.90
2019-03-12T00:44:57.381Z,99.90
2019-03-12T00:47:27.429Z,99.90
2019-03-12T00:49:57.594Z,99.90
2019-03-12T00:52:27.549Z,99.90
2019-03-12T00:54:57.394Z,99.90
2019-03-12T00:57:27.465Z,99.90
2019-03-12T00:59:57.356Z,99.90
2019-03-12T01:02:27.366Z,99.90
2019-03-12T01:04:57.360Z,99.90
2019-03-12T01:07:27.364Z,99.90
2019-03-12T01:09:57.305Z,99.90
2019-03-12T01:12:27.560Z,99.90
2019-03-12T01:14:57.674Z,99.90
2019-03-12T01:17:27.844Z,99.90
2019-03-12T01:19:57.778Z,99.90
2019-03-12T01:22:27.893Z,99.90
2019-03-12T01:24:57.797Z,99.90
2019-03-12T01:27:27.703Z,99.90
2019-03-12T01:29:57.714Z,99.90
2019-03-12T01:32:28.112Z,99.90
2019-03-12T01:34:58.491Z,99.90
2019-03-12T01:37:29.148Z,99.90
2019-03-12T01:39:58.978Z,99.90
2019-03-12T01:42:29.779Z,99.90
2019-03-12T01:44:59.923Z,99.90
2019-03-12T01:47:30.935Z,99.90
2019-03-12T01:50:00.860Z,99.90
2019-03-12T01:52:30.867Z,99.90
2019-03-12T01:55:01.433Z,99.90
2019-03-12T01:57:31.797Z,99.90
2019-03-12T02:00:02.335Z,99.90
2019-03-12T02:02:32.846Z,99.90
2019-03-12T02:05:02.739Z,99.90
2019-03-12T02:07:32.926Z,99.90
2019-03-12T02:10:04.678Z,99.90
2019-03-12T02:12:34.603Z,99.90
2019-03-12T02:15:06.565Z,99.90
2019-03-12T02:17:36.557Z,99.90
2019-03-12T02:20:09.303Z,99.90
2019-03-12T02:22:39.503Z,99.90
2019-03-12T02:25:10.726Z,99.90
2019-03-12T02:27:40.998Z,99.90
2019-03-12T02:30:13.655Z,99.90
2019-03-12T02:32:44.991Z,99.90
2019-03-12T02:35:15.425Z,99.90
2019-03-12T02:37:45.698Z,99.90
2019-03-12T02:40:25.544Z,99.90
2019-03-12T02:42:55.445Z,99.90
2019-03-12T02:45:25.755Z,99.90
2019-03-12T02:47:55.897Z,99.90
2019-03-12T02:50:26.063Z,99.90
2019-03-12T02:52:56.875Z,99.90
2019-03-12T02:55:26.781Z,99.90
2019-03-12T02:57:57.263Z,99.90
2019-03-12T03:00:29.763Z,99.90
2019-03-12T03:03:00.135Z,99.90
2019-03-12T03:05:31.745Z,99.90
2019-03-12T03:08:04.740Z,99.90
2019-03-12T03:10:34.856Z,99.90
2019-03-12T03:13:05.103Z,99.90
2019-03-12T03:15:41.913Z,99.90
2019-03-12T03:18:12.011Z,99.90
2019-03-12T03:20:43.139Z,99.90
2019-03-12T03:23:13.193Z,99.90
2019-03-12T03:25:43.591Z,99.90
2019-03-12T03:28:13.809Z,99.90
2019-03-12T03:30:44.970Z,99.90
2019-03-12T03:33:15.532Z,99.90
2019-03-12T03:35:45.646Z,99.90
2019-03-12T03:38:15.806Z,99.90
2019-03-12T03:40:46.107Z,99.90
2019-03-12T03:43:16.171Z,99.90
2019-03-12T03:45:46.395Z,99.90
2019-03-12T03:48:16.834Z,99.90
2019-03-12T03:50:47.133Z,99.90
2019-03-12T03:53:17.502Z,99.90
2019-03-12T03:55:47.472Z,99.90
2019-03-12T03:58:17.623Z,99.90
2019-03-12T04:00:47.954Z,99.90
2019-03-12T04:03:18.043Z,99.90
2019-03-12T04:05:48.696Z,99.90
2019-03-12T04:08:18.959Z,99.90
2019-03-12T04:10:49.069Z,99.90
2019-03-12T04:13:19.374Z,99.90
2019-03-12T04:15:50.322Z,99.90
2019-03-12T04:18:20.722Z,99.90
2019-03-12T04:20:51.193Z,99.90
2019-03-12T04:23:21.828Z,99.90
2019-03-12T04:25:51.982Z,99.90
2019-03-12T04:28:22.148Z,99.90
2019-03-12T04:30:52.390Z,99.90
2019-03-12T04:34:16.259Z,99.90
2019-03-12T04:36:47.329Z,99.90
2019-03-12T04:39:17.388Z,99.90
2019-03-12T04:41:48.665Z,99.90
2019-03-12T04:44:18.959Z,99.90
2019-03-12T04:46:49.290Z,99.90
2019-03-12T04:49:19.367Z,99.90
2019-03-12T04:51:49.286Z,99.90
2019-03-12T04:54:19.392Z,99.90
2019-03-12T04:56:49.351Z,99.90
2019-03-12T04:59:19.621Z,99.90
2019-03-12T05:01:50.135Z,99.90
2019-03-12T05:04:20.103Z,99.90
2019-03-12T05:06:50.053Z,99.90
2019-03-12T05:09:20.047Z,99.90
2019-03-12T05:11:50.463Z,99.90
2019-03-12T05:14:31.669Z,99.90
2019-03-12T05:17:11.551Z,99.90
2019-03-12T05:19:46.334Z,99.90
2019-03-12T05:22:18.315Z,99.90
2019-03-12T05:24:48.295Z,99.90
2019-03-12T05:27:18.808Z,99.90
2019-03-12T05:29:49.111Z,99.90
2019-03-12T05:32:19.552Z,99.90
2019-03-12T05:34:49.408Z,99.90
2019-03-12T05:37:19.660Z,99.90
2019-03-12T05:39:49.790Z,99.90
2019-03-12T05:42:19.753Z,99.90
2019-03-12T05:44:49.864Z,99.90
2019-03-12T05:47:19.855Z,99.90
2019-03-12T05:49:49.932Z,99.90
2019-03-12T05:52:19.927Z,99.90
2019-03-12T05:54:50.035Z,99.90
2019-03-12T05:57:19.956Z,99.90
2019-03-12T05:59:50.104Z,99.90
2019-03-12T06:02:20.181Z,99.90
2019-03-12T06:04:50.335Z,99.90
2019-03-12T06:07:20.389Z,99.90
2019-03-12T06:09:50.788Z,99.90
2019-03-12T06:12:20.879Z,99.90
2019-03-12T06:14:50.975Z,99.90
2019-03-12T06:17:21.657Z,99.90
2019-03-12T06:19:55.800Z,99.90
2019-03-12T06:22:25.705Z,99.90
2019-03-12T06:24:56.339Z,99.90
2019-03-12T06:27:27.206Z,99.90
2019-03-12T06:29:57.589Z,99.90
2019-03-12T06:32:45.590Z,99.90
2019-03-12T06:35:41.527Z,99.90
2019-03-12T06:38:39.896Z,99.90
2019-03-12T06:41:21.218Z,99.90
2019-03-12T06:44:16.221Z,99.90
2019-03-12T06:46:57.178Z,99.90
2019-03-12T06:49:43.659Z,99.90
2019-03-12T06:52:31.653Z,99.90
2019-03-12T06:55:08.678Z,99.90
2019-03-12T06:58:26.326Z,99.90
2019-03-12T07:01:18.165Z,99.90
2019-03-12T07:04:16.546Z,99.90
2019-03-12T07:07:11.464Z,99.90
2019-03-12T07:09:49.901Z,99.90
2019-03-12T07:12:37.913Z,99.90
2019-03-12T07:15:25.174Z,99.90
2019-03-12T07:18:06.505Z,99.90
2019-03-12T07:20:48.704Z,99.90
2019-03-12T07:23:24.317Z,99.90
2019-03-12T07:26:14.198Z,99.90
2019-03-12T07:29:09.652Z,99.90
2019-03-12T07:31:54.490Z,90.60
2019-03-12T07:34:55.924Z,84.20
2019-03-12T07:37:35.483Z,93.20
2019-03-12T07:40:20.402Z,95.70
2019-03-12T07:43:12.847Z,96.20
2019-03-12T07:45:48.475Z,92.30
2019-03-12T07:48:37.896Z,89.70
2019-03-12T07:51:26.299Z,84.30
2019-03-12T07:54:11.416Z,82.30
2019-03-12T07:57:11.345Z,82.50
2019-03-12T07:59:47.243Z,82.30
2019-03-12T08:02:36.338Z,79.80
2019-03-12T08:05:24.446Z,68.80
2019-03-12T08:08:12.088Z,65.10
2019-03-12T08:10:47.852Z,61.20
2019-03-12T08:13:28.715Z,57.80
2019-03-12T08:16:22.634Z,55.70
2019-03-12T08:19:04.285Z,56.60
2019-03-12T08:21:46.002Z,54.80
2019-03-12T08:24:28.432Z,53.80
2019-03-12T08:27:07.099Z,52.90
2019-03-12T08:29:49.377Z,53.00
2019-03-12T08:32:35.418Z,51.30
2019-03-12T08:35:23.046Z,51.10
2019-03-12T08:38:12.224Z,50.50
2019-03-12T08:40:59.977Z,48.00
2019-03-12T08:43:49.107Z,47.70
2019-03-12T08:46:53.621Z,48.70
2019-03-12T08:49:35.177Z,48.40
2019-03-12T08:52:23.364Z,46.00
2019-03-12T08:55:22.036Z,46.90
2019-03-12T08:58:07.968Z,47.10
2019-03-12T09:00:56.346Z,46.50
2019-03-12T09:03:38.775Z,48.30
2019-03-12T09:06:27.982Z,46.20
2019-03-12T09:09:15.614Z,43.90
2019-03-12T09:11:59.131Z,45.80
2019-03-12T09:14:48.645Z,47.40
2019-03-12T09:17:28.502Z,46.20
2019-03-12T09:20:31.329Z,45.30
2019-03-12T09:23:39.502Z,46.80
2019-03-12T09:26:21.479Z,47.20
2019-03-12T09:29:29.351Z,45.40
2019-03-12T09:32:30.487Z,46.90
2019-03-12T09:35:25.921Z,47.20
2019-03-12T09:38:18.040Z,48.60
2019-03-12T09:41:06.229Z,49.30
2019-03-12T09:43:57.270Z,48.20
2019-03-12T09:46:41.746Z,47.70
2019-03-12T09:49:42.881Z,48.30
2019-03-12T09:52:19.790Z,47.20
2019-03-12T09:55:04.931Z,46.00
2019-03-12T09:58:03.323Z,46.80
2019-03-12T10:00:40.972Z,47.80
2019-03-12T10:03:28.842Z,50.10
2019-03-12T10:06:21.117Z,46.00
2019-03-12T10:09:10.125Z,48.20
2019-03-12T10:11:52.717Z,47.90
2019-03-12T10:14:36.807Z,48.90
2019-03-12T10:17:21.842Z,47.60
2019-03-12T10:20:23.211Z,47.20
2019-03-12T10:23:02.652Z,47.30
2019-03-12T10:25:56.244Z,47.80
2019-03-12T10:28:54.249Z,48.20
2019-03-12T10:31:51.606Z,48.90
2019-03-12T10:34:49.712Z,48.70
2019-03-12T10:37:38.930Z,45.20
2019-03-12T10:40:33.646Z,45.60
2019-03-12T10:43:23.037Z,44.40
2019-03-12T10:45:58.818Z,44.10
2019-03-12T10:48:30.324Z,43.80
2019-03-12T10:51:00.794Z,44.80
2019-03-12T10:53:30.992Z,47.10
2019-03-12T10:56:01.424Z,43.60
2019-03-12T10:58:31.453Z,44.60
2019-03-12T11:01:01.750Z,45.60
2019-03-12T11:03:31.804Z,44.20
2019-03-12T11:06:01.884Z,44.00
2019-03-12T11:08:31.920Z,45.60
2019-03-12T11:11:02.728Z,46.00
2019-03-12T11:13:32.854Z,46.50
2019-03-12T11:16:02.885Z,48.60
2019-03-12T11:18:33.182Z,49.10
2019-03-12T11:21:03.794Z,49.00
2019-03-12T11:23:34.147Z,49.00
2019-03-12T11:26:04.136Z,51.30
2019-03-12T11:28:34.720Z,52.80
2019-03-12T11:31:04.949Z,54.70
2019-03-12T11:33:34.922Z,55.90
2019-03-12T11:36:05.000Z,55.90
2019-03-12T11:38:35.179Z,57.20
2019-03-12T11:41:05.304Z,57.10
2019-03-12T11:43:35.590Z,58.00
2019-03-12T11:46:06.218Z,57.00
2019-03-12T11:48:37.269Z,57.10
2019-03-12T11:51:07.499Z,58.30
2019-03-12T11:53:38.070Z,57.40
2019-03-12T11:56:08.495Z,57.00
2019-03-12T11:58:39.328Z,56.90
2019-03-12T12:01:09.600Z,57.10
2019-03-12T12:03:39.944Z,59.50
2019-03-12T12:06:10.185Z,59.00
2019-03-12T12:08:40.190Z,59.70
2019-03-12T12:11:10.952Z,60.90
2019-03-12T12:13:41.427Z,60.40
2019-03-12T12:16:11.434Z,59.90
2019-03-12T12:18:42.056Z,60.70
2019-03-12T12:21:12.742Z,62.00
2019-03-12T12:23:43.054Z,61.90
2019-03-12T12:26:13.061Z,61.80
2019-03-12T12:28:43.244Z,62.60
2019-03-12T12:31:13.492Z,62.20
2019-03-12T12:33:43.955Z,62.90
2019-03-12T12:36:14.271Z,62.00
2019-03-12T12:38:44.380Z,63.10
2019-03-12T12:41:14.885Z,62.80
2019-03-12T12:43:45.534Z,63.20
2019-03-12T12:46:16.296Z,65.00
2019-03-12T12:48:46.291Z,64.20
2019-03-12T12:51:17.360Z,63.20
2019-03-12T12:53:47.529Z,63.40
2019-03-12T12:56:17.813Z,63.60
2019-03-12T12:58:48.078Z,63.30
2019-03-12T13:01:18.330Z,63.30
2019-03-12T13:03:48.636Z,59.60
2019-03-12T13:06:19.531Z,58.70
2019-03-12T13:08:49.857Z,58.10
2019-03-12T13:11:19.940Z,59.50
2019-03-12T13:13:50.877Z,59.20
2019-03-12T13:16:25.395Z,59.60
2019-03-12T13:18:53.217Z,57.90
2019-03-12T13:21:23.609Z,57.80
2019-03-12T13:23:55.001Z,58.30
2019-03-12T13:26:25.115Z,59.30
2019-03-12T13:28:55.303Z,60.30
2019-03-12T13:31:25.341Z,59.50
2019-03-12T13:33:55.506Z,59.70
2019-03-12T13:36:25.679Z,59.70
2019-03-12T13:38:55.739Z,59.90
2019-03-12T13:41:26.007Z,59.60
2019-03-12T13:43:56.446Z,59.80
2019-03-12T13:46:28.418Z,58.70
2019-03-12T13:48:59.138Z,58.00
2019-03-12T13:51:30.113Z,58.70
2019-03-12T13:54:03.142Z,57.90
2019-03-12T13:56:33.298Z,56.10
2019-03-12T13:59:06.561Z,57.60
2019-03-12T14:01:38.463Z,57.80
2019-03-12T14:04:10.838Z,58.60
2019-03-12T14:06:40.481Z,60.30
2019-03-12T14:09:10.647Z,62.30
2019-03-12T14:11:40.798Z,64.60
2019-03-12T14:14:10.841Z,69.80
2019-03-12T14:16:40.778Z,72.40
2019-03-12T14:19:10.941Z,74.20
2019-03-12T14:21:42.811Z,75.40
2019-03-12T14:24:12.985Z,76.20
2019-03-12T14:26:43.060Z,79.30
2019-03-12T14:29:13.287Z,79.60
2019-03-12T14:31:43.249Z,80.80
2019-03-12T14:34:13.360Z,82.30
2019-03-12T14:36:43.436Z,81.60
2019-03-12T14:39:14.305Z,81.10
2019-03-12T14:41:44.767Z,77.80
2019-03-12T14:44:14.931Z,78.10
2019-03-12T14:46:46.637Z,76.40
2019-03-12T14:49:16.727Z,74.20
2019-03-12T14:51:55.537Z,74.60
2019-03-12T14:54:26.007Z,74.00
2019-03-12T14:56:56.094Z,74.10
2019-03-12T14:59:26.414Z,74.20
2019-03-12T15:01:56.541Z,72.50
2019-03-12T15:04:26.746Z,74.30
2019-03-12T15:06:56.854Z,73.20
2019-03-12T15:09:26.720Z,75.20
2019-03-12T15:11:59.285Z,74.60
2019-03-12T15:14:29.452Z,76.20
2019-03-12T15:16:59.424Z,78.50
2019-03-12T15:19:35.302Z,77.70
2019-03-12T15:22:05.350Z,78.60
2019-03-12T15:24:36.303Z,76.10
2019-03-12T15:27:06.727Z,76.10
2019-03-12T15:29:37.034Z,77.60
2019-03-12T15:32:07.802Z,76.60
2019-03-12T15:34:37.838Z,77.80
2019-03-12T15:37:08.035Z,78.90
2019-03-12T15:39:38.178Z,80.40
2019-03-12T15:42:08.070Z,78.70
2019-03-12T15:44:38.535Z,78.40
2019-03-12T15:47:09.052Z,75.40
2019-03-12T15:49:43.008Z,76.50
2019-03-12T15:52:11.355Z,77.50
2019-03-12T15:54:41.913Z,77.00
2019-03-12T15:57:12.554Z,75.90
2019-03-12T15:59:43.073Z,77.90
2019-03-12T16:02:13.526Z,78.40
2019-03-12T16:04:43.847Z,78.40
2019-03-12T16:07:13.895Z,80.30
2019-03-12T16:09:43.919Z,78.70
2019-03-12T16:12:13.992Z,79.10
2019-03-12T16:14:44.169Z,79.00
2019-03-12T16:17:14.226Z,80.00
2019-03-12T16:19:44.383Z,80.30
2019-03-12T16:22:15.130Z,81.20
2019-03-12T16:24:45.080Z,79.00
2019-03-12T16:27:15.259Z,77.70
2019-03-12T16:29:45.526Z,78.30
2019-03-12T16:32:15.419Z,78.10
2019-03-12T16:34:45.473Z,79.70
2019-03-12T16:37:24.052Z,82.70
2019-03-12T16:39:54.110Z,84.60
2019-03-12T16:42:34.516Z,84.10
2019-03-12T16:44:56.041Z,85.00
2019-03-12T16:47:26.287Z,84.40
2019-03-12T16:49:56.669Z,83.60
2019-03-12T16:52:27.102Z,82.20
2019-03-12T16:54:56.987Z,80.40
2019-03-12T16:57:26.979Z,80.40
2019-03-12T16:59:57.363Z,80.60
2019-03-12T17:02:28.923Z,81.20
2019-03-12T17:04:59.078Z,77.90
2019-03-12T17:07:29.191Z,78.80
2019-03-12T17:09:59.469Z,78.40
2019-03-12T17:12:29.619Z,79.30
2019-03-12T17:15:00.490Z,78.70
2019-03-12T17:17:31.544Z,79.50
2019-03-12T17:20:02.143Z,78.50
2019-03-12T17:22:35.746Z,78.60
2019-03-12T17:25:06.329Z,76.70
2019-03-12T17:27:36.525Z,76.90
2019-03-12T17:30:09.964Z,77.70
2019-03-12T17:32:40.217Z,76.80
2019-03-12T17:35:11.285Z,77.40
2019-03-12T17:37:42.046Z,77.40
2019-03-12T17:40:15.171Z,76.60
2019-03-12T17:42:45.682Z,75.30
2019-03-12T17:45:16.186Z,75.60
2019-03-12T17:47:46.606Z,75.20
2019-03-12T17:50:17.353Z,75.50
2019-03-12T17:52:47.448Z,77.20
2019-03-12T17:55:17.593Z,75.70
2019-03-12T17:57:50.503Z,74.70
2019-03-12T18:00:21.245Z,75.00
2019-03-12T18:02:51.846Z,75.10
2019-03-12T18:05:21.951Z,73.40
2019-03-12T18:07:52.087Z,73.30
2019-03-12T18:10:22.704Z,73.20
2019-03-12T18:12:53.555Z,72.80
2019-03-12T18:15:24.112Z,73.00
2019-03-12T18:17:54.299Z,72.60
2019-03-12T18:20:24.706Z,72.40
2019-03-12T18:22:54.858Z,71.80
2019-03-12T18:25:26.376Z,71.80
2019-03-12T18:27:56.938Z,70.30
2019-03-12T18:30:27.388Z,69.60
2019-03-12T18:32:57.487Z,68.20
2019-03-12T18:35:27.904Z,69.20
2019-03-12T18:37:58.036Z,67.90
2019-03-12T18:40:28.235Z,67.40
2019-03-12T18:42:58.890Z,66.30
2019-03-12T18:45:29.070Z,66.20
2019-03-12T18:47:59.210Z,65.80
2019-03-12T18:50:29.278Z,66.10
2019-03-12T18:52:59.362Z,65.80
2019-03-12T18:55:43.842Z,66.10
2019-03-12T18:58:13.930Z,65.80
2019-03-12T19:00:48.694Z,65.30
2019-03-12T19:03:18.008Z,64.50
2019-03-12T19:05:48.523Z,65.30
2019-03-12T19:08:18.736Z,63.90
2019-03-12T19:10:49.467Z,64.40
2019-03-12T19:13:19.373Z,64.00
2019-03-12T19:15:49.554Z,63.10
2019-03-12T19:18:20.601Z,63.50
2019-03-12T19:20:51.438Z,63.60
2019-03-12T19:23:21.512Z,62.80
2019-03-12T19:25:52.091Z,62.60
2019-03-12T19:28:22.647Z,63.40
2019-03-12T19:30:55.611Z,62.90
2019-03-12T19:33:26.752Z,62.50
2019-03-12T19:35:57.067Z,62.60
2019-03-12T19:38:27.608Z,62.20
2019-03-12T19:40:58.229Z,62.20
2019-03-12T19:43:28.725Z,62.20
2019-03-12T19:45:58.763Z,61.70
2019-03-12T19:48:29.283Z,61.20
2019-03-12T19:50:59.802Z,61.50
2019-03-12T19:53:29.853Z,61.40
2019-03-12T19:56:00.191Z,60.60
2019-03-12T19:58:30.355Z,61.70
2019-03-12T20:01:01.628Z,62.30
2019-03-12T20:03:32.023Z,62.80
2019-03-12T20:06:03.770Z,63.10
2019-03-12T20:08:34.228Z,64.10
2019-03-12T20:11:48.739Z,64.20
2019-03-12T20:15:02.783Z,64.70
2019-03-12T20:18:45.514Z,65.00
2019-03-12T20:21:58.944Z,65.50
2019-03-12T20:25:09.620Z,66.10
2019-03-12T20:28:44.255Z,66.10
2019-03-12T20:31:35.349Z,66.30
2019-03-12T20:34:30.369Z,65.90
2019-03-12T20:37:43.356Z,66.30
2019-03-12T20:40:56.577Z,66.20
2019-03-12T20:44:22.678Z,66.70
2019-03-12T20:47:22.197Z,66.40
2019-03-12T20:50:36.216Z,67.10
2019-03-12T20:53:47.951Z,66.60
2019-03-12T20:56:54.029Z,67.30
2019-03-12T21:00:01.256Z,67.40
2019-03-12T21:03:19.279Z,68.00
2019-03-12T21:06:45.395Z,68.40
2019-03-12T21:09:58.543Z,68.50
2019-03-12T21:13:09.924Z,70.20
2019-03-12T21:16:02.417Z,70.70
2019-03-12T21:19:22.637Z,71.50
2019-03-12T21:22:18.066Z,72.30
2019-03-12T21:25:15.692Z,73.70
2019-03-12T21:28:48.354Z,74.60
2019-03-12T21:31:18.873Z,75.00
2019-03-12T21:33:49.677Z,75.80
2019-03-12T21:36:19.887Z,76.30
2019-03-12T21:38:49.877Z,77.00
2019-03-12T21:41:19.880Z,76.30
2019-03-12T21:43:49.883Z,75.90
2019-03-12T21:46:20.308Z,74.60
2019-03-12T21:48:50.489Z,74.60
2019-03-12T21:51:20.497Z,74.10
2019-03-12T21:53:50.881Z,75.20
2019-03-12T21:56:21.073Z,74.60
2019-03-12T21:58:51.570Z,73.50
2019-03-12T22:01:21.596Z,72.70
2019-03-12T22:03:51.981Z,72.50
2019-03-12T22:06:22.137Z,72.30
2019-03-12T22:08:52.199Z,73.40
2019-03-12T22:11:22.313Z,73.70
2019-03-12T22:13:52.587Z,74.90
2019-03-12T22:16:22.510Z,74.80
2019-03-12T22:18:52.534Z,75.50
2019-03-12T22:21:30.130Z,75.30
2019-03-12T22:24:05.129Z,75.70
2019-03-12T22:26:35.731Z,76.70
2019-03-12T22:29:05.850Z,77.80
2019-03-12T22:31:36.394Z,79.40
2019-03-12T22:34:06.538Z,79.10
2019-03-12T22:36:36.411Z,79.90
2019-03-12T22:39:08.581Z,80.30
2019-03-12T22:41:38.628Z,81.10
2019-03-12T22:44:08.569Z,81.90
2019-03-12T22:46:40.102Z,83.40
2019-03-12T22:49:09.985Z,84.20
2019-03-12T22:51:40.161Z,84.40
2019-03-12T22:54:10.200Z,86.10
2019-03-12T22:56:40.183Z,87.00
2019-03-12T22:59:10.186Z,90.00
2019-03-12T23:01:40.314Z,91.90
2019-03-12T23:04:10.263Z,92.20
2019-03-12T23:06:41.054Z,95.20
2019-03-12T23:09:11.331Z,98.50
2019-03-12T23:11:41.587Z,99.90
2019-03-12T23:14:11.496Z,99.90
2019-03-12T23:16:42.158Z,99.90
2019-03-12T23:19:12.235Z,99.90
2019-03-12T23:21:42.726Z,99.90
2019-03-12T23:24:13.414Z,99.90
2019-03-12T23:26:43.718Z,99.90
2019-03-12T23:29:13.746Z,99.90
2019-03-12T23:31:44.089Z,99.90
2019-03-12T23:34:14.318Z,99.90
2019-03-12T23:36:44.362Z,99.90
2019-03-12T23:39:14.532Z,99.90
2019-03-12T23:41:44.865Z,99.90
2019-03-12T23:44:15.031Z,99.90
2019-03-12T23:46:45.362Z,99.90
2019-03-12T23:49:15.637Z,99.90
2019-03-12T23:51:46.027Z,99.90
2019-03-12T23:54:16.503Z,99.90
2019-03-12T23:56:46.622Z,99.90
2019-03-12T23:59:17.154Z,99.90
